Argyll, United Kingdom
Current Conditions -  °F | °C
As of 3:20 PM on Saturday 22 Nov 2014 (Local Time) from EGPF Reporting Station
Overcast Overcast  
Wind Chill: 10°   Ceiling: 2100
Heat Index: 10°   Visibility: 6mi
Dew Point:   Wind: 8mph
Humidity: 94%   Direction: 230°SW
Pressure: 29.77"   Gusts: NA
Location:  56.05°N, 5.39°W
Report Text: EGPF 221520Z AUTO 23007KT 9999 FEW008 BKN021 OVC038 10/09 Q1008 RERA
Loading
Personal Weather Stations






























Interactive Weather Map New forecast layout! Learn more

10-Day Weather Forecast

Advertisements
Track Severe Weather on mobile